createdAt,value
2018-06-05T00:00:21.192Z,17.53
2018-06-05T00:02:50.640Z,17.40
2018-06-05T00:05:19.990Z,18.17
2018-06-05T00:07:49.396Z,17.87
2018-06-05T00:10:19.073Z,18.20
2018-06-05T00:12:48.917Z,17.27
2018-06-05T00:15:18.295Z,17.57
2018-06-05T00:17:48.043Z,18.40
2018-06-05T00:20:17.141Z,18.43
2018-06-05T00:22:46.462Z,19.77
2018-06-05T00:25:15.761Z,18.77
2018-06-05T00:27:45.097Z,20.10
2018-06-05T00:30:14.502Z,19.50
2018-06-05T00:32:43.891Z,19.37
2018-06-05T00:35:13.275Z,20.60
2018-06-05T00:37:58.805Z,20.40
2018-06-05T00:40:28.353Z,20.30
2018-06-05T00:42:57.671Z,20.30
2018-06-05T00:45:27.012Z,19.57
2018-06-05T00:47:56.308Z,22.37
2018-06-05T00:50:25.611Z,23.50
2018-06-05T00:52:54.907Z,22.93
2018-06-05T00:55:24.156Z,21.80
2018-06-05T00:57:53.535Z,22.63
2018-06-05T01:00:22.899Z,22.03
2018-06-05T01:02:52.302Z,22.60
2018-06-05T01:05:21.575Z,23.00
2018-06-05T01:07:50.858Z,24.47
2018-06-05T01:10:20.119Z,23.00
2018-06-05T01:12:49.511Z,24.13
2018-06-05T01:15:18.795Z,21.27
2018-06-05T01:17:48.087Z,23.30
2018-06-05T01:20:17.389Z,23.33
2018-06-05T01:22:46.895Z,25.00
2018-06-05T01:25:16.214Z,21.83
2018-06-05T01:27:45.497Z,21.90
2018-06-05T01:30:14.779Z,22.77
2018-06-05T01:32:44.189Z,23.20
2018-06-05T01:35:13.705Z,21.20
2018-06-05T01:37:43.222Z,22.67
2018-06-05T01:40:12.590Z,21.50
2018-06-05T01:42:42.018Z,22.47
2018-06-05T01:45:11.644Z,21.10
2018-06-05T01:47:40.974Z,21.60
2018-06-05T01:50:10.280Z,22.80
2018-06-05T01:52:39.469Z,23.00
2018-06-05T01:55:08.942Z,21.27
2018-06-05T01:57:38.273Z,23.73
2018-06-05T02:00:07.590Z,23.20
2018-06-05T02:02:36.867Z,22.07
2018-06-05T02:05:06.169Z,22.20
2018-06-05T02:07:35.846Z,24.57
2018-06-05T02:10:05.199Z,22.90
2018-06-05T02:12:34.505Z,21.30
2018-06-05T02:15:03.808Z,21.37
2018-06-05T02:17:33.085Z,21.53
2018-06-05T02:20:02.382Z,20.97
2018-06-05T02:22:31.686Z,21.37
2018-06-05T02:25:00.981Z,18.57
2018-06-05T02:27:30.281Z,18.37
2018-06-05T02:30:00.266Z,18.70
2018-06-05T02:32:29.530Z,19.60
2018-06-05T02:34:58.816Z,19.77
2018-06-05T02:37:28.094Z,20.40
2018-06-05T02:39:57.326Z,17.07
2018-06-05T02:42:26.571Z,18.43
2018-06-05T02:44:55.855Z,18.83
2018-06-05T02:47:25.151Z,17.00
2018-06-05T02:49:54.407Z,17.33
2018-06-05T02:52:24.139Z,16.10
2018-06-05T02:54:53.428Z,17.67
2018-06-05T02:57:22.693Z,16.57
2018-06-05T02:59:51.998Z,16.90
2018-06-05T03:02:27.863Z,17.37
2018-06-05T03:04:57.178Z,16.50
2018-06-05T03:07:26.486Z,18.33
2018-06-05T03:09:55.751Z,16.53
2018-06-05T03:12:25.180Z,19.00
2018-06-05T03:14:54.473Z,17.30
2018-06-05T03:17:23.827Z,17.90
2018-06-05T03:19:53.099Z,18.80
2018-06-05T03:22:22.377Z,18.30
2018-06-05T03:24:51.658Z,18.77
2018-06-05T03:27:20.983Z,17.60
2018-06-05T03:29:50.251Z,19.20
2018-06-05T03:32:19.554Z,18.43
2018-06-05T03:34:49.396Z,17.43
2018-06-05T03:37:19.046Z,17.30
2018-06-05T03:39:48.297Z,17.50
2018-06-05T03:42:17.606Z,19.10
2018-06-05T03:44:46.900Z,19.63
2018-06-05T03:47:16.275Z,21.90
2018-06-05T03:49:45.640Z,22.30
2018-06-05T03:52:14.977Z,20.50
2018-06-05T03:54:44.399Z,21.80
2018-06-05T03:57:14.188Z,21.17
2018-06-05T03:59:43.435Z,21.10
2018-06-05T04:02:12.735Z,19.83
2018-06-05T04:04:42.094Z,18.57
2018-06-05T04:07:11.427Z,17.53
2018-06-05T04:09:40.737Z,16.30
2018-06-05T04:12:10.134Z,15.17
2018-06-05T04:14:39.525Z,15.07
2018-06-05T04:17:08.849Z,14.17
2018-06-05T04:19:38.690Z,15.40
2018-06-05T04:22:08.127Z,14.90
2018-06-05T04:24:37.429Z,16.33
2018-06-05T04:27:06.830Z,14.40
2018-06-05T04:29:36.162Z,13.73
2018-06-05T04:32:05.479Z,14.43
2018-06-05T04:34:34.849Z,13.67
2018-06-05T04:37:04.167Z,12.40
2018-06-05T04:39:33.870Z,12.53
2018-06-05T04:42:03.297Z,12.17
2018-06-05T04:44:32.641Z,12.67
2018-06-05T04:47:01.954Z,12.10
2018-06-05T04:49:31.325Z,12.87
2018-06-05T04:52:00.891Z,11.70
2018-06-05T04:54:30.284Z,12.47
2018-06-05T04:57:02.211Z,13.20
2018-06-05T04:59:31.529Z,14.10
2018-06-05T05:02:00.960Z,14.73
2018-06-05T05:04:30.737Z,15.00
2018-06-05T05:07:00.090Z,16.03
2018-06-05T05:09:29.416Z,16.07
2018-06-05T05:11:58.750Z,16.33
2018-06-05T05:14:28.043Z,17.17
2018-06-05T05:16:57.380Z,16.87
2018-06-05T05:19:26.717Z,16.90
2018-06-05T05:21:56.159Z,17.60
2018-06-05T05:24:25.513Z,18.37
2018-06-05T05:26:55.164Z,18.40
2018-06-05T05:29:24.562Z,19.27
2018-06-05T05:31:53.970Z,17.73
2018-06-05T05:34:25.631Z,19.37
2018-06-05T05:36:55.101Z,17.07
2018-06-05T05:39:24.453Z,17.07
2018-06-05T05:41:54.349Z,16.17
2018-06-05T05:44:23.736Z,16.97
2018-06-05T05:46:53.083Z,15.70
2018-06-05T05:49:22.713Z,15.10
2018-06-05T05:51:52.064Z,16.53
2018-06-05T05:54:21.530Z,16.80
2018-06-05T05:56:50.930Z,16.80
2018-06-05T05:59:20.249Z,15.73
2018-06-05T06:01:49.565Z,16.53
2018-06-05T06:04:18.950Z,16.87
2018-06-05T06:06:48.308Z,16.20
2018-06-05T06:09:17.673Z,16.17
2018-06-05T06:11:47.260Z,16.50
2018-06-05T06:14:16.619Z,15.57
2018-06-05T06:16:45.969Z,15.73
2018-06-05T06:19:15.349Z,15.30
2018-06-05T06:21:44.687Z,16.20
2018-06-05T06:24:14.079Z,15.47
2018-06-05T06:26:43.418Z,15.70
2018-06-05T06:29:12.809Z,15.70
2018-06-05T06:31:42.184Z,15.07
2018-06-05T06:34:11.882Z,16.57
2018-06-05T06:36:41.194Z,15.80
2018-06-05T06:39:10.899Z,17.50
2018-06-05T06:41:40.304Z,18.30
2018-06-05T06:44:09.615Z,16.53
2018-06-05T06:46:38.946Z,16.40
2018-06-05T06:49:08.306Z,16.00
2018-06-05T06:51:37.634Z,16.07
2018-06-05T06:54:06.984Z,15.70
2018-06-05T06:56:36.639Z,15.57
2018-06-05T06:59:06.026Z,15.90
2018-06-05T07:01:35.354Z,15.63
2018-06-05T07:04:04.729Z,15.43
2018-06-05T07:06:34.050Z,15.80
2018-06-05T07:09:03.456Z,15.90
2018-06-05T07:11:32.846Z,20.67
2018-06-05T07:14:02.213Z,14.90
2018-06-05T07:16:31.569Z,15.53
2018-06-05T07:19:01.307Z,14.70
2018-06-05T07:21:30.633Z,14.20
2018-06-05T07:24:00.036Z,15.30
2018-06-05T07:26:29.342Z,14.80
2018-06-05T07:28:58.676Z,15.60
2018-06-05T07:31:28.057Z,14.83
2018-06-05T07:33:57.447Z,14.20
2018-06-05T07:36:27.027Z,17.10
2018-06-05T07:38:56.355Z,15.13
2018-06-05T07:41:25.982Z,16.30
2018-06-05T07:43:55.453Z,16.90
2018-06-05T07:46:24.849Z,17.20
2018-06-05T07:48:54.191Z,16.67
2018-06-05T07:51:23.539Z,15.93
2018-06-05T07:53:52.872Z,16.43
2018-06-05T07:56:22.254Z,16.63
2018-06-05T07:58:51.580Z,15.90
2018-06-05T08:01:20.974Z,16.07
2018-06-05T08:03:50.754Z,15.57
2018-06-05T08:06:20.092Z,14.93
2018-06-05T08:08:49.515Z,15.30
2018-06-05T08:11:18.877Z,14.93
2018-06-05T08:13:48.226Z,14.50
2018-06-05T08:16:17.607Z,14.67
2018-06-05T08:18:47.014Z,15.67
2018-06-05T08:21:16.374Z,14.90
2018-06-05T08:23:45.713Z,14.23
2018-06-05T08:26:15.329Z,14.50
2018-06-05T08:28:44.683Z,14.30
2018-06-05T08:31:14.029Z,14.50
2018-06-05T08:33:43.414Z,14.60
2018-06-05T08:36:12.795Z,14.07
2018-06-05T08:38:42.145Z,14.20
2018-06-05T08:41:11.544Z,14.20
2018-06-05T08:43:40.921Z,14.13
2018-06-05T08:46:10.262Z,13.73
2018-06-05T08:48:39.996Z,14.50
2018-06-05T08:51:09.313Z,13.33
2018-06-05T08:53:38.650Z,13.37
2018-06-05T08:56:08.074Z,13.07
2018-06-05T08:58:37.443Z,13.60
2018-06-05T09:01:06.927Z,13.33
2018-06-05T09:03:36.306Z,13.50
2018-06-05T09:06:05.755Z,12.67
2018-06-05T09:08:35.146Z,11.40
2018-06-05T09:11:04.718Z,11.83
2018-06-05T09:13:34.071Z,11.97
2018-06-05T09:16:03.480Z,11.03
2018-06-05T09:18:32.878Z,11.90
2018-06-05T09:21:02.290Z,11.73
2018-06-05T09:23:31.676Z,11.83
2018-06-05T09:26:01.080Z,12.10
2018-06-05T09:28:30.510Z,11.93
2018-06-05T09:31:00.436Z,12.50
2018-06-05T09:33:29.968Z,11.00
2018-06-05T09:35:59.343Z,11.57
2018-06-05T09:38:28.738Z,13.27
2018-06-05T09:40:58.107Z,13.23
2018-06-05T09:43:27.482Z,11.10
2018-06-05T09:45:56.894Z,12.10
2018-06-05T09:48:26.279Z,10.50
2018-06-05T09:50:55.622Z,10.37
2018-06-05T09:53:25.027Z,9.57
2018-06-05T09:55:54.786Z,9.00
2018-06-05T09:58:24.414Z,9.50
2018-06-05T10:00:54.114Z,9.97
2018-06-05T10:03:23.549Z,9.80
2018-06-05T10:05:52.954Z,8.37
2018-06-05T10:08:22.333Z,10.00
2018-06-05T10:10:51.667Z,9.43
2018-06-05T10:13:21.082Z,8.70
2018-06-05T10:15:50.567Z,10.97
2018-06-05T10:18:20.205Z,10.33
2018-06-05T10:20:49.638Z,9.30
2018-06-05T10:23:19.064Z,9.43
2018-06-05T10:25:48.455Z,9.27
2018-06-05T10:28:17.846Z,8.67
2018-06-05T10:30:47.202Z,7.77
2018-06-05T10:33:16.562Z,7.80
2018-06-05T10:35:45.940Z,8.10
2018-06-05T10:38:15.335Z,7.30
2018-06-05T10:40:44.966Z,7.60
2018-06-05T10:43:14.331Z,8.57
2018-06-05T10:45:43.675Z,7.60
2018-06-05T10:48:13.061Z,7.60
2018-06-05T10:50:42.475Z,7.80
2018-06-05T10:53:11.847Z,8.80
2018-06-05T10:55:41.232Z,7.90
2018-06-05T10:58:10.584Z,7.67
2018-06-05T11:00:39.986Z,6.93
2018-06-05T11:03:09.502Z,7.27
2018-06-05T11:05:38.868Z,6.90
2018-06-05T11:08:08.236Z,7.60
2018-06-05T11:10:37.638Z,6.47
2018-06-05T11:13:06.971Z,7.10
2018-06-05T11:15:36.386Z,7.10
2018-06-05T11:18:05.973Z,7.93
2018-06-05T11:20:35.309Z,7.40
2018-06-05T11:23:04.749Z,6.90
2018-06-05T11:25:34.399Z,7.10
2018-06-05T11:28:03.811Z,6.17
2018-06-05T11:30:33.270Z,5.60
2018-06-05T11:33:02.674Z,5.73
2018-06-05T11:35:32.076Z,7.00
2018-06-05T11:38:01.437Z,6.60
2018-06-05T11:40:30.803Z,7.20
2018-06-05T11:43:00.177Z,8.50
2018-06-05T11:45:29.556Z,10.47
2018-06-05T11:47:59.498Z,7.40
2018-06-05T11:50:28.872Z,7.23
2018-06-05T11:52:58.297Z,6.27
2018-06-05T11:55:27.658Z,6.53
2018-06-05T11:57:57.013Z,6.93
2018-06-05T12:00:26.346Z,8.27
2018-06-05T12:02:55.702Z,6.80
2018-06-05T12:05:25.099Z,6.20
2018-06-05T12:07:54.451Z,5.97
2018-06-05T12:10:24.047Z,6.27
2018-06-05T12:12:53.428Z,6.00
2018-06-05T12:15:22.795Z,5.63
2018-06-05T12:17:52.234Z,5.47
2018-06-05T12:20:21.566Z,5.27
2018-06-05T12:22:50.902Z,6.17
2018-06-05T12:25:20.332Z,4.90
2018-06-05T12:27:49.667Z,5.03
2018-06-05T12:30:18.999Z,5.03
2018-06-05T12:32:48.963Z,5.13
2018-06-05T12:35:18.365Z,5.40
2018-06-05T12:37:47.763Z,5.50
2018-06-05T12:40:17.126Z,4.90
2018-06-05T12:42:46.470Z,5.13
2018-06-05T12:45:15.826Z,5.13
2018-06-05T12:47:45.175Z,5.63
2018-06-05T12:50:14.489Z,5.20
2018-06-05T12:52:43.883Z,6.10
2018-06-05T12:55:14.304Z,5.30
2018-06-05T12:57:43.675Z,5.30
2018-06-05T13:00:13.056Z,4.67
2018-06-05T13:02:42.469Z,4.03
2018-06-05T13:05:11.795Z,4.20
2018-06-05T13:07:41.113Z,3.60
2018-06-05T13:10:10.585Z,4.50
2018-06-05T13:12:39.998Z,3.80
2018-06-05T13:15:09.401Z,4.63
2018-06-05T13:17:39.507Z,4.00
2018-06-05T13:20:08.854Z,4.47
2018-06-05T13:22:38.541Z,3.87
2018-06-05T13:25:07.889Z,6.07
2018-06-05T13:27:37.249Z,4.33
2018-06-05T13:30:06.572Z,3.20
2018-06-05T13:32:36.214Z,3.50
2018-06-05T13:35:05.614Z,3.93
2018-06-05T13:37:34.972Z,3.90
2018-06-05T13:40:04.294Z,3.57
2018-06-05T13:42:33.615Z,4.40
2018-06-05T13:45:02.944Z,3.43
2018-06-05T13:47:32.339Z,3.63
2018-06-05T13:50:01.684Z,2.80
2018-06-05T13:52:30.805Z,3.30
2018-06-05T13:55:00.244Z,3.80
2018-06-05T13:57:29.579Z,3.77
2018-06-05T13:59:58.945Z,4.60
2018-06-05T14:02:28.901Z,4.50
2018-06-05T14:04:58.328Z,3.60
2018-06-05T14:07:27.701Z,3.90
2018-06-05T14:09:57.116Z,4.73
2018-06-05T14:12:26.215Z,4.10
2018-06-05T14:14:55.324Z,4.17
2018-06-05T14:17:24.726Z,4.03
2018-06-05T14:19:54.093Z,4.20
2018-06-05T14:22:23.431Z,4.87
2018-06-05T14:24:53.046Z,4.70
2018-06-05T14:27:22.433Z,4.77
2018-06-05T14:29:51.841Z,4.53
2018-06-05T14:32:21.252Z,5.13
2018-06-05T14:34:50.637Z,5.07
2018-06-05T14:37:20.178Z,4.57
2018-06-05T14:39:49.595Z,4.93
2018-06-05T14:42:18.983Z,4.77
2018-06-05T14:44:48.375Z,5.20
2018-06-05T14:47:18.168Z,4.80
2018-06-05T14:49:47.548Z,5.03
2018-06-05T14:52:17.222Z,5.23
2018-06-05T14:54:46.620Z,4.83
2018-06-05T14:57:15.980Z,5.30
2018-06-05T14:59:45.355Z,5.60
2018-06-05T15:02:14.762Z,5.00
2018-06-05T15:04:44.084Z,5.93
2018-06-05T15:07:13.556Z,5.03
2018-06-05T15:09:43.508Z,5.70
2018-06-05T15:12:12.853Z,5.77
2018-06-05T15:14:42.206Z,5.07
2018-06-05T15:17:11.580Z,5.40
2018-06-05T15:19:40.909Z,6.17
2018-06-05T15:22:10.437Z,5.70
2018-06-05T15:24:39.826Z,5.50
2018-06-05T15:27:09.223Z,5.23
2018-06-05T15:29:38.725Z,6.77
2018-06-05T15:32:08.477Z,6.30
2018-06-05T15:34:37.982Z,6.17
2018-06-05T15:37:07.486Z,6.60
2018-06-05T15:39:36.926Z,7.33
2018-06-05T15:42:06.377Z,6.60
2018-06-05T15:44:36.203Z,6.27
2018-06-05T15:47:05.626Z,6.40
2018-06-05T15:49:35.103Z,6.30
2018-06-05T15:52:04.565Z,5.50
2018-06-05T15:54:34.247Z,7.07
2018-06-05T15:57:03.738Z,6.20
2018-06-05T15:59:33.322Z,5.67
2018-06-05T16:02:03.285Z,6.50
2018-06-05T16:04:33.241Z,7.40
2018-06-05T16:07:03.703Z,7.00
2018-06-05T16:09:33.315Z,6.30
2018-06-05T16:12:02.837Z,6.80
2018-06-05T16:14:33.156Z,5.40
2018-06-05T16:17:02.831Z,7.17
2018-06-05T16:19:32.368Z,6.33
2018-06-05T16:22:01.973Z,6.27
2018-06-05T16:24:31.655Z,5.97
2018-06-05T16:27:00.827Z,9.10
2018-06-05T16:29:30.453Z,6.83
2018-06-05T16:31:59.720Z,6.63
2018-06-05T16:34:29.632Z,6.13
2018-06-05T16:36:59.046Z,6.40
2018-06-05T16:39:28.828Z,6.40
2018-06-05T16:41:58.316Z,5.70
2018-06-05T16:44:27.845Z,6.50
2018-06-05T16:46:57.472Z,5.90
2018-06-05T16:49:26.901Z,6.43
2018-06-05T16:51:56.461Z,6.03
2018-06-05T16:54:26.571Z,6.50
2018-06-05T16:56:56.041Z,7.10
2018-06-05T16:59:25.544Z,6.10
2018-06-05T17:01:55.457Z,7.30
2018-06-05T17:04:25.025Z,6.77
2018-06-05T17:06:54.567Z,6.00
2018-06-05T17:09:24.131Z,5.90
2018-06-05T17:11:53.744Z,7.13
2018-06-05T17:14:23.191Z,6.37
2018-06-05T17:16:52.783Z,5.80
2018-06-05T17:19:23.343Z,6.20
2018-06-05T17:21:53.293Z,6.13
2018-06-05T17:24:23.132Z,6.23
2018-06-05T17:26:52.701Z,5.93
2018-06-05T17:29:22.217Z,6.20
2018-06-05T17:31:51.853Z,6.00
2018-06-05T17:34:21.791Z,6.17
2018-06-05T17:36:52.102Z,6.90
2018-06-05T17:39:21.648Z,6.90
2018-06-05T17:41:51.236Z,5.90
2018-06-05T17:44:21.744Z,6.13
2018-06-05T17:46:51.366Z,5.90
2018-06-05T17:49:21.274Z,6.83
2018-06-05T17:51:51.122Z,6.10
2018-06-05T17:54:20.744Z,6.50
2018-06-05T17:56:50.294Z,6.63
2018-06-05T17:59:20.331Z,7.10
2018-06-05T18:01:51.084Z,6.40
2018-06-05T18:04:20.782Z,6.57
2018-06-05T18:06:52.288Z,6.50
2018-06-05T18:09:25.461Z,7.13
2018-06-05T18:11:55.952Z,6.00
2018-06-05T18:14:26.694Z,6.50
2018-06-05T18:16:59.729Z,6.23
2018-06-05T18:19:29.502Z,6.23
2018-06-05T18:22:01.967Z,5.90
2018-06-05T18:24:40.180Z,5.80
2018-06-05T18:27:11.123Z,5.90
2018-06-05T18:29:41.335Z,6.17
2018-06-05T18:32:11.466Z,5.67
2018-06-05T18:34:42.558Z,6.30
2018-06-05T18:37:13.346Z,6.80
2018-06-05T18:39:44.894Z,6.47
2018-06-05T18:42:17.815Z,6.77
2018-06-05T18:44:49.182Z,6.07
2018-06-05T18:47:19.837Z,6.70
2018-06-05T18:49:50.471Z,6.27
2018-06-05T18:52:22.087Z,6.20
2018-06-05T18:54:58.581Z,7.00
2018-06-05T18:57:29.151Z,6.67
2018-06-05T19:00:05.255Z,6.73
2018-06-05T19:02:39.531Z,6.50
2018-06-05T19:05:10.777Z,5.83
2018-06-05T19:07:42.799Z,6.30
2018-06-05T19:10:12.926Z,6.60
2018-06-05T19:12:43.879Z,6.43
2018-06-05T19:15:18.171Z,6.50
2018-06-05T19:18:02.550Z,6.67
2018-06-05T19:20:36.340Z,6.50
2018-06-05T19:23:12.645Z,6.50
2018-06-05T19:25:47.098Z,7.13
2018-06-05T19:28:18.639Z,6.63
2018-06-05T19:30:52.766Z,6.57
2018-06-05T19:33:24.285Z,6.63
2018-06-05T19:36:04.319Z,7.83
2018-06-05T19:38:36.921Z,6.93
2018-06-05T19:41:08.719Z,7.47
2018-06-05T19:43:41.248Z,7.53
2018-06-05T19:46:11.409Z,8.00
2018-06-05T19:48:44.326Z,7.40
2018-06-05T19:51:15.731Z,6.97
2018-06-05T19:53:46.344Z,7.27
2018-06-05T19:56:15.628Z,7.50
2018-06-05T19:58:45.029Z,7.87
2018-06-05T20:01:14.637Z,8.80
2018-06-05T20:03:44.106Z,8.67
2018-06-05T20:06:13.541Z,10.20
2018-06-05T20:08:42.917Z,10.37
2018-06-05T20:11:13.134Z,11.60
2018-06-05T20:13:42.551Z,9.97
2018-06-05T20:16:12.349Z,11.13
2018-06-05T20:18:41.970Z,10.90
2018-06-05T20:21:11.287Z,11.77
2018-06-05T20:23:40.675Z,11.60
2018-06-05T20:26:10.125Z,12.13
2018-06-05T20:28:39.464Z,12.13
2018-06-05T20:31:08.840Z,12.30
2018-06-05T20:33:38.185Z,13.63
2018-06-05T20:36:07.511Z,13.07
2018-06-05T20:38:37.257Z,12.20
2018-06-05T20:41:06.750Z,14.00
2018-06-05T20:43:36.278Z,13.30
2018-06-05T20:46:05.892Z,13.50
2018-06-05T20:48:35.515Z,13.10
2018-06-05T20:51:04.996Z,12.70
2018-06-05T20:53:35.176Z,13.17
2018-06-05T20:56:04.589Z,13.30
2018-06-05T20:58:34.023Z,14.20
2018-06-05T21:01:03.538Z,13.40
2018-06-05T21:03:33.203Z,13.93
2018-06-05T21:06:02.497Z,13.07
2018-06-05T21:08:32.008Z,13.50
2018-06-05T21:11:01.440Z,12.93
2018-06-05T21:13:30.829Z,14.23
2018-06-05T21:16:00.231Z,13.70
2018-06-05T21:18:29.593Z,13.20
2018-06-05T21:20:58.912Z,13.87
2018-06-05T21:23:28.640Z,12.17
2018-06-05T21:25:57.963Z,13.67
2018-06-05T21:28:27.340Z,13.63
2018-06-05T21:30:56.726Z,13.23
2018-06-05T21:33:26.096Z,12.57
2018-06-05T21:35:55.183Z,12.90
2018-06-05T21:38:24.657Z,12.67
2018-06-05T21:40:54.003Z,13.90
2018-06-05T21:43:23.372Z,12.53
2018-06-05T21:45:52.973Z,13.07
2018-06-05T21:48:22.317Z,13.10
2018-06-05T21:50:51.638Z,14.13
2018-06-05T21:53:21.015Z,12.20
2018-06-05T21:55:50.392Z,12.37
2018-06-05T21:58:19.730Z,10.90
2018-06-05T22:00:49.183Z,10.87
2018-06-05T22:03:18.479Z,10.63
2018-06-05T22:05:47.837Z,8.80
2018-06-05T22:08:17.681Z,9.60
2018-06-05T22:10:47.020Z,9.93
2018-06-05T22:13:16.364Z,9.30
2018-06-05T22:15:45.925Z,8.40
2018-06-05T22:18:15.233Z,9.33
2018-06-05T22:20:44.518Z,8.70
2018-06-05T22:23:13.861Z,8.90
2018-06-05T22:25:43.244Z,9.00
2018-06-05T22:28:12.558Z,7.90
2018-06-05T22:30:42.278Z,8.20
2018-06-05T22:33:11.581Z,6.93
2018-06-05T22:35:40.961Z,7.93
2018-06-05T22:38:10.377Z,8.60
2018-06-05T22:40:39.655Z,7.10
2018-06-05T22:43:08.728Z,6.30
2018-06-05T22:45:38.165Z,6.67
2018-06-05T22:48:07.526Z,5.33
2018-06-05T22:50:36.946Z,5.93
2018-06-05T22:53:06.435Z,5.17
2018-06-05T22:55:36.175Z,4.93
2018-06-05T22:58:05.463Z,4.90
2018-06-05T23:00:35.065Z,4.27
2018-06-05T23:03:04.815Z,4.67
2018-06-05T23:05:34.359Z,4.17
2018-06-05T23:08:03.930Z,4.60
2018-06-05T23:10:33.718Z,4.17
2018-06-05T23:13:03.458Z,4.10
2018-06-05T23:15:33.006Z,4.20
2018-06-05T23:18:02.537Z,3.50
2018-06-05T23:20:32.016Z,3.73
2018-06-05T23:23:01.480Z,3.10
2018-06-05T23:25:31.230Z,3.80
2018-06-05T23:28:00.406Z,3.07
2018-06-05T23:30:29.874Z,3.40
2018-06-05T23:32:59.272Z,3.07
2018-06-05T23:35:28.685Z,3.50
2018-06-05T23:37:58.680Z,3.10
2018-06-05T23:40:28.072Z,2.80
2018-06-05T23:42:57.607Z,3.03
2018-06-05T23:45:27.071Z,2.70
2018-06-05T23:47:56.367Z,3.20
2018-06-05T23:50:25.634Z,2.50
2018-06-05T23:52:55.250Z,2.70
2018-06-05T23:55:24.878Z,3.00
2018-06-05T23:57:54.275Z,3.20
